sensor_id;sensor_type;location;lat;lon;timestamp;temperature;humidity
23259;DHT22;11798;51.528;7.240;2023-09-12T00:00:37;20.20;99.90
23259;DHT22;11798;51.528;7.240;2023-09-12T00:03:03;20.20;99.90
23259;DHT22;11798;51.528;7.240;2023-09-12T00:05:28;20.10;99.90
23259;DHT22;11798;51.528;7.240;2023-09-12T00:07:54;20.10;99.90
23259;DHT22;11798;51.528;7.240;2023-09-12T00:10:19;20.00;99.90
23259;DHT22;11798;51.528;7.240;2023-09-12T00:12:45;20.10;99.90
23259;DHT22;11798;51.528;7.240;2023-09-12T00:15:12;20.00;99.90
23259;DHT22;11798;51.528;7.240;2023-09-12T00:17:38;20.00;99.90
23259;DHT22;11798;51.528;7.240;2023-09-12T00:20:04;20.00;99.90
23259;DHT22;11798;51.528;7.240;2023-09-12T00:22:31;20.00;99.90
23259;DHT22;11798;51.528;7.240;2023-09-12T00:24:57;20.00;99.90
23259;DHT22;11798;51.528;7.240;2023-09-12T00:27:22;19.90;99.90
23259;DHT22;11798;51.528;7.240;2023-09-12T00:29:48;19.90;99.90
23259;DHT22;11798;51.528;7.240;2023-09-12T00:32:14;19.90;99.90
23259;DHT22;11798;51.528;7.240;2023-09-12T00:34:39;19.80;99.90
23259;DHT22;11798;51.528;7.240;2023-09-12T00:37:05;19.80;99.90
23259;DHT22;11798;51.528;7.240;2023-09-12T00:39:30;19.80;99.90
23259;DHT22;11798;51.528;7.240;2023-09-12T00:41:56;19.80;99.90
23259;DHT22;11798;51.528;7.240;2023-09-12T00:44:21;19.70;99.90
23259;DHT22;11798;51.528;7.240;2023-09-12T00:46:48;19.80;99.90
23259;DHT22;11798;51.528;7.240;2023-09-12T00:49:16;19.70;99.90
23259;DHT22;11798;51.528;7.240;2023-09-12T00:51:44;19.70;99.90
23259;DHT22;11798;51.528;7.240;2023-09-12T00:54:10;19.80;99.90
23259;DHT22;11798;51.528;7.240;2023-09-12T00:56:36;19.70;99.90
23259;DHT22;11798;51.528;7.240;2023-09-12T00:59:02;19.70;99.90
23259;DHT22;11798;51.528;7.240;2023-09-12T01:01:29;19.60;99.90
23259;DHT22;11798;51.528;7.240;2023-09-12T01:03:56;19.70;99.90
23259;DHT22;11798;51.528;7.240;2023-09-12T01:06:24;19.60;99.90
23259;DHT22;11798;51.528;7.240;2023-09-12T01:08:54;19.70;99.90
23259;DHT22;11798;51.528;7.240;2023-09-12T01:11:20;19.70;99.90
23259;DHT22;11798;51.528;7.240;2023-09-12T01:13:45;19.70;99.90
23259;DHT22;11798;51.528;7.240;2023-09-12T01:16:11;19.70;99.90
23259;DHT22;11798;51.528;7.240;2023-09-12T01:18:37;19.70;99.90
23259;DHT22;11798;51.528;7.240;2023-09-12T01:21:24;19.70;99.90
23259;DHT22;11798;51.528;7.240;2023-09-12T01:26:41;19.70;99.90
23259;DHT22;11798;51.528;7.240;2023-09-12T01:29:12;19.70;99.90
23259;DHT22;11798;51.528;7.240;2023-09-12T01:31:39;19.70;99.90
23259;DHT22;11798;51.528;7.240;2023-09-12T01:34:09;19.70;99.90
23259;DHT22;11798;51.528;7.240;2023-09-12T01:36:36;19.80;99.90
23259;DHT22;11798;51.528;7.240;2023-09-12T01:39:01;19.80;99.90
23259;DHT22;11798;51.528;7.240;2023-09-12T01:41:28;19.80;99.90
23259;DHT22;11798;51.528;7.240;2023-09-12T01:43:56;19.80;99.90
23259;DHT22;11798;51.528;7.240;2023-09-12T01:46:22;19.80;99.90
23259;DHT22;11798;51.528;7.240;2023-09-12T01:48:50;19.80;99.90
23259;DHT22;11798;51.528;7.240;2023-09-12T01:51:18;19.80;99.90
23259;DHT22;11798;51.528;7.240;2023-09-12T01:53:45;19.80;99.90
23259;DHT22;11798;51.528;7.240;2023-09-12T01:56:12;19.80;99.90
23259;DHT22;11798;51.528;7.240;2023-09-12T01:58:38;19.70;99.90
23259;DHT22;11798;51.528;7.240;2023-09-12T02:01:04;19.70;99.90
23259;DHT22;11798;51.528;7.240;2023-09-12T02:03:30;19.70;99.90
23259;DHT22;11798;51.528;7.240;2023-09-12T02:05:55;19.70;99.90
23259;DHT22;11798;51.528;7.240;2023-09-12T02:08:22;19.70;99.90
23259;DHT22;11798;51.528;7.240;2023-09-12T02:10:47;19.70;99.90
23259;DHT22;11798;51.528;7.240;2023-09-12T02:13:13;19.70;99.90
23259;DHT22;11798;51.528;7.240;2023-09-12T02:15:39;19.70;99.90
23259;DHT22;11798;51.528;7.240;2023-09-12T02:18:04;19.70;99.90
23259;DHT22;11798;51.528;7.240;2023-09-12T02:20:31;19.80;99.90
23259;DHT22;11798;51.528;7.240;2023-09-12T02:22:57;19.80;99.90
23259;DHT22;11798;51.528;7.240;2023-09-12T02:25:23;19.80;99.90
23259;DHT22;11798;51.528;7.240;2023-09-12T02:27:48;19.80;99.90
23259;DHT22;11798;51.528;7.240;2023-09-12T02:30:14;19.70;99.90
23259;DHT22;11798;51.528;7.240;2023-09-12T02:32:42;19.70;99.90
23259;DHT22;11798;51.528;7.240;2023-09-12T02:35:07;19.70;99.90
23259;DHT22;11798;51.528;7.240;2023-09-12T02:37:33;19.70;99.90
23259;DHT22;11798;51.528;7.240;2023-09-12T02:39:58;19.80;99.90
23259;DHT22;11798;51.528;7.240;2023-09-12T02:42:24;19.80;99.90
23259;DHT22;11798;51.528;7.240;2023-09-12T02:44:50;19.80;99.90
23259;DHT22;11798;51.528;7.240;2023-09-12T02:47:17;19.80;99.90
23259;DHT22;11798;51.528;7.240;2023-09-12T02:49:43;19.80;99.90
23259;DHT22;11798;51.528;7.240;2023-09-12T02:52:08;19.80;99.90
23259;DHT22;11798;51.528;7.240;2023-09-12T02:54:34;19.80;99.90
23259;DHT22;11798;51.528;7.240;2023-09-12T02:57:00;19.80;99.90
23259;DHT22;11798;51.528;7.240;2023-09-12T02:59:25;19.80;99.90
23259;DHT22;11798;51.528;7.240;2023-09-12T03:01:51;19.90;99.90
23259;DHT22;11798;51.528;7.240;2023-09-12T03:04:16;19.90;99.90
23259;DHT22;11798;51.528;7.240;2023-09-12T03:06:42;19.90;99.90
23259;DHT22;11798;51.528;7.240;2023-09-12T03:09:09;19.90;99.90
23259;DHT22;11798;51.528;7.240;2023-09-12T03:11:35;19.80;99.90
23259;DHT22;11798;51.528;7.240;2023-09-12T03:14:00;19.80;99.90
23259;DHT22;11798;51.528;7.240;2023-09-12T03:16:26;19.80;99.90
23259;DHT22;11798;51.528;7.240;2023-09-12T03:18:51;19.80;99.90
23259;DHT22;11798;51.528;7.240;2023-09-12T03:21:17;19.80;99.90
23259;DHT22;11798;51.528;7.240;2023-09-12T03:23:43;19.80;99.90
23259;DHT22;11798;51.528;7.240;2023-09-12T03:26:08;19.80;99.90
23259;DHT22;11798;51.528;7.240;2023-09-12T03:28:34;19.90;99.90
23259;DHT22;11798;51.528;7.240;2023-09-12T03:31:07;19.80;99.90
23259;DHT22;11798;51.528;7.240;2023-09-12T03:33:33;19.80;99.90
23259;DHT22;11798;51.528;7.240;2023-09-12T03:35:59;19.80;99.90
23259;DHT22;11798;51.528;7.240;2023-09-12T03:38:24;19.70;99.90
23259;DHT22;11798;51.528;7.240;2023-09-12T03:40:50;19.70;99.90
23259;DHT22;11798;51.528;7.240;2023-09-12T03:43:15;19.70;99.90
23259;DHT22;11798;51.528;7.240;2023-09-12T03:45:41;19.70;99.90
23259;DHT22;11798;51.528;7.240;2023-09-12T03:48:07;19.70;99.90
23259;DHT22;11798;51.528;7.240;2023-09-12T03:50:32;19.70;99.90
23259;DHT22;11798;51.528;7.240;2023-09-12T03:52:58;19.70;99.90
23259;DHT22;11798;51.528;7.240;2023-09-12T03:55:23;19.60;99.90
23259;DHT22;11798;51.528;7.240;2023-09-12T03:57:49;19.50;99.90
23259;DHT22;11798;51.528;7.240;2023-09-12T04:00:15;19.50;99.90
23259;DHT22;11798;51.528;7.240;2023-09-12T04:02:41;19.50;99.90
23259;DHT22;11798;51.528;7.240;2023-09-12T04:05:07;19.40;99.90
23259;DHT22;11798;51.528;7.240;2023-09-12T04:07:32;19.50;99.90
23259;DHT22;11798;51.528;7.240;2023-09-12T04:09:58;19.40;99.90
23259;DHT22;11798;51.528;7.240;2023-09-12T04:12:23;19.40;99.90
23259;DHT22;11798;51.528;7.240;2023-09-12T04:14:50;19.40;99.90
23259;DHT22;11798;51.528;7.240;2023-09-12T04:17:16;19.40;99.90
23259;DHT22;11798;51.528;7.240;2023-09-12T04:19:42;19.40;99.90
23259;DHT22;11798;51.528;7.240;2023-09-12T04:22:08;19.40;99.90
23259;DHT22;11798;51.528;7.240;2023-09-12T04:24:33;19.30;99.90
23259;DHT22;11798;51.528;7.240;2023-09-12T04:26:59;19.30;99.90
23259;DHT22;11798;51.528;7.240;2023-09-12T04:29:24;19.20;99.90
23259;DHT22;11798;51.528;7.240;2023-09-12T04:31:50;19.20;99.90
23259;DHT22;11798;51.528;7.240;2023-09-12T04:34:18;19.20;99.90
23259;DHT22;11798;51.528;7.240;2023-09-12T04:36:43;19.20;99.90
23259;DHT22;11798;51.528;7.240;2023-09-12T04:39:09;19.20;99.90
23259;DHT22;11798;51.528;7.240;2023-09-12T04:41:34;19.20;99.90
23259;DHT22;11798;51.528;7.240;2023-09-12T04:44:00;19.10;99.90
23259;DHT22;11798;51.528;7.240;2023-09-12T04:46:27;19.10;99.90
23259;DHT22;11798;51.528;7.240;2023-09-12T04:48:53;19.10;99.90
23259;DHT22;11798;51.528;7.240;2023-09-12T04:51:18;19.10;99.90
23259;DHT22;11798;51.528;7.240;2023-09-12T04:53:44;19.10;99.90
23259;DHT22;11798;51.528;7.240;2023-09-12T04:56:10;19.00;99.90
23259;DHT22;11798;51.528;7.240;2023-09-12T04:58:35;19.00;99.90
23259;DHT22;11798;51.528;7.240;2023-09-12T05:01:01;19.00;99.90
23259;DHT22;11798;51.528;7.240;2023-09-12T05:03:27;19.00;99.90
23259;DHT22;11798;51.528;7.240;2023-09-12T05:05:53;19.00;99.90
23259;DHT22;11798;51.528;7.240;2023-09-12T05:08:18;19.00;99.90
23259;DHT22;11798;51.528;7.240;2023-09-12T05:10:45;19.00;99.90
23259;DHT22;11798;51.528;7.240;2023-09-12T05:13:10;19.00;99.90
23259;DHT22;11798;51.528;7.240;2023-09-12T05:15:37;19.00;99.90
23259;DHT22;11798;51.528;7.240;2023-09-12T05:18:05;19.10;99.90
23259;DHT22;11798;51.528;7.240;2023-09-12T05:20:31;19.10;99.90
23259;DHT22;11798;51.528;7.240;2023-09-12T05:22:57;19.10;99.90
23259;DHT22;11798;51.528;7.240;2023-09-12T05:25:22;19.10;99.90
23259;DHT22;11798;51.528;7.240;2023-09-12T05:27:48;19.20;99.90
23259;DHT22;11798;51.528;7.240;2023-09-12T05:30:13;19.10;99.90
23259;DHT22;11798;51.528;7.240;2023-09-12T05:32:41;19.20;99.90
23259;DHT22;11798;51.528;7.240;2023-09-12T05:35:07;19.20;99.90
23259;DHT22;11798;51.528;7.240;2023-09-12T05:37:32;19.20;99.90
23259;DHT22;11798;51.528;7.240;2023-09-12T05:39:58;19.20;99.90
23259;DHT22;11798;51.528;7.240;2023-09-12T05:42:23;19.20;99.90
23259;DHT22;11798;51.528;7.240;2023-09-12T05:44:50;19.20;99.90
23259;DHT22;11798;51.528;7.240;2023-09-12T05:47:19;19.20;99.90
23259;DHT22;11798;51.528;7.240;2023-09-12T05:49:44;19.10;99.90
23259;DHT22;11798;51.528;7.240;2023-09-12T05:52:10;19.10;99.90
23259;DHT22;11798;51.528;7.240;2023-09-12T05:54:36;19.10;99.90
23259;DHT22;11798;51.528;7.240;2023-09-12T05:57:02;19.10;99.90
23259;DHT22;11798;51.528;7.240;2023-09-12T05:59:28;19.20;99.90
23259;DHT22;11798;51.528;7.240;2023-09-12T06:01:53;19.20;99.90
23259;DHT22;11798;51.528;7.240;2023-09-12T06:04:19;19.20;99.90
23259;DHT22;11798;51.528;7.240;2023-09-12T06:06:46;19.30;99.90
23259;DHT22;11798;51.528;7.240;2023-09-12T06:09:12;19.30;99.90
23259;DHT22;11798;51.528;7.240;2023-09-12T06:11:37;19.30;99.90
23259;DHT22;11798;51.528;7.240;2023-09-12T06:14:03;19.30;99.90
23259;DHT22;11798;51.528;7.240;2023-09-12T06:16:29;19.30;99.90
23259;DHT22;11798;51.528;7.240;2023-09-12T06:18:55;19.40;99.90
23259;DHT22;11798;51.528;7.240;2023-09-12T06:21:21;19.30;99.90
23259;DHT22;11798;51.528;7.240;2023-09-12T06:23:47;19.40;99.90
23259;DHT22;11798;51.528;7.240;2023-09-12T06:26:13;19.40;99.90
23259;DHT22;11798;51.528;7.240;2023-09-12T06:28:40;19.50;99.90
23259;DHT22;11798;51.528;7.240;2023-09-12T06:31:08;19.60;99.90
23259;DHT22;11798;51.528;7.240;2023-09-12T06:33:34;19.60;99.90
23259;DHT22;11798;51.528;7.240;2023-09-12T06:36:00;19.60;99.90
23259;DHT22;11798;51.528;7.240;2023-09-12T06:38:25;19.60;99.90
23259;DHT22;11798;51.528;7.240;2023-09-12T06:40:51;19.60;99.90
23259;DHT22;11798;51.528;7.240;2023-09-12T06:43:17;19.40;99.90
23259;DHT22;11798;51.528;7.240;2023-09-12T06:45:42;19.20;99.90
23259;DHT22;11798;51.528;7.240;2023-09-12T06:48:08;19.20;99.90
23259;DHT22;11798;51.528;7.240;2023-09-12T06:50:34;19.10;99.90
23259;DHT22;11798;51.528;7.240;2023-09-12T06:53:00;19.00;99.90
23259;DHT22;11798;51.528;7.240;2023-09-12T06:55:25;19.10;99.90
23259;DHT22;11798;51.528;7.240;2023-09-12T06:57:51;19.10;99.90
23259;DHT22;11798;51.528;7.240;2023-09-12T07:00:16;19.10;99.90
23259;DHT22;11798;51.528;7.240;2023-09-12T07:02:42;19.10;99.90
23259;DHT22;11798;51.528;7.240;2023-09-12T07:05:08;19.00;99.90
23259;DHT22;11798;51.528;7.240;2023-09-12T07:07:34;19.00;99.90
23259;DHT22;11798;51.528;7.240;2023-09-12T07:09:59;19.00;99.90
23259;DHT22;11798;51.528;7.240;2023-09-12T07:12:26;19.00;99.90
23259;DHT22;11798;51.528;7.240;2023-09-12T07:14:51;19.10;99.90
23259;DHT22;11798;51.528;7.240;2023-09-12T07:17:17;19.10;99.90
23259;DHT22;11798;51.528;7.240;2023-09-12T07:19:43;19.00;99.90
23259;DHT22;11798;51.528;7.240;2023-09-12T07:22:09;19.00;99.90
23259;DHT22;11798;51.528;7.240;2023-09-12T07:24:34;19.10;99.90
23259;DHT22;11798;51.528;7.240;2023-09-12T07:27:00;19.00;99.90
23259;DHT22;11798;51.528;7.240;2023-09-12T07:29:26;18.90;99.90
23259;DHT22;11798;51.528;7.240;2023-09-12T07:31:53;18.90;99.90
23259;DHT22;11798;51.528;7.240;2023-09-12T07:34:20;18.90;99.90
23259;DHT22;11798;51.528;7.240;2023-09-12T07:36:45;18.90;99.90
23259;DHT22;11798;51.528;7.240;2023-09-12T07:39:11;18.90;99.90
23259;DHT22;11798;51.528;7.240;2023-09-12T07:41:37;18.90;99.90
23259;DHT22;11798;51.528;7.240;2023-09-12T07:44:02;18.90;99.90
23259;DHT22;11798;51.528;7.240;2023-09-12T07:46:30;18.90;99.90
23259;DHT22;11798;51.528;7.240;2023-09-12T07:48:56;18.90;99.90
23259;DHT22;11798;51.528;7.240;2023-09-12T07:51:22;18.90;99.90
23259;DHT22;11798;51.528;7.240;2023-09-12T07:53:48;18.90;99.90
23259;DHT22;11798;51.528;7.240;2023-09-12T07:56:14;19.00;99.90
23259;DHT22;11798;51.528;7.240;2023-09-12T07:58:39;19.10;99.90
23259;DHT22;11798;51.528;7.240;2023-09-12T08:01:06;19.10;99.90
23259;DHT22;11798;51.528;7.240;2023-09-12T08:03:33;19.00;99.90
23259;DHT22;11798;51.528;7.240;2023-09-12T08:05:59;19.10;99.90
23259;DHT22;11798;51.528;7.240;2023-09-12T08:08:25;19.20;99.90
23259;DHT22;11798;51.528;7.240;2023-09-12T08:10:50;19.20;99.90
23259;DHT22;11798;51.528;7.240;2023-09-12T08:13:16;19.30;99.90
23259;DHT22;11798;51.528;7.240;2023-09-12T08:15:41;19.40;99.90
23259;DHT22;11798;51.528;7.240;2023-09-12T08:18:07;19.50;99.90
23259;DHT22;11798;51.528;7.240;2023-09-12T08:20:32;19.60;99.90
23259;DHT22;11798;51.528;7.240;2023-09-12T08:22:58;19.70;99.90
23259;DHT22;11798;51.528;7.240;2023-09-12T08:25:23;19.70;99.90
23259;DHT22;11798;51.528;7.240;2023-09-12T08:27:50;19.80;99.90
23259;DHT22;11798;51.528;7.240;2023-09-12T08:30:16;19.80;99.90
23259;DHT22;11798;51.528;7.240;2023-09-12T08:32:42;19.90;99.90
23259;DHT22;11798;51.528;7.240;2023-09-12T08:35:13;19.90;99.90
23259;DHT22;11798;51.528;7.240;2023-09-12T08:37:39;19.90;99.90
23259;DHT22;11798;51.528;7.240;2023-09-12T08:40:09;19.90;99.90
23259;DHT22;11798;51.528;7.240;2023-09-12T08:42:40;20.00;99.90
23259;DHT22;11798;51.528;7.240;2023-09-12T08:45:12;20.00;99.90
23259;DHT22;11798;51.528;7.240;2023-09-12T08:47:44;20.00;99.90
23259;DHT22;11798;51.528;7.240;2023-09-12T08:50:11;20.10;99.90
23259;DHT22;11798;51.528;7.240;2023-09-12T08:52:39;20.20;99.90
23259;DHT22;11798;51.528;7.240;2023-09-12T08:55:05;20.30;99.90
23259;DHT22;11798;51.528;7.240;2023-09-12T08:57:33;20.40;99.90
23259;DHT22;11798;51.528;7.240;2023-09-12T09:00:00;20.50;99.90
23259;DHT22;11798;51.528;7.240;2023-09-12T09:02:32;20.50;99.90
23259;DHT22;11798;51.528;7.240;2023-09-12T09:04:59;20.60;99.90
23259;DHT22;11798;51.528;7.240;2023-09-12T09:07:26;20.60;99.90
23259;DHT22;11798;51.528;7.240;2023-09-12T09:09:52;20.70;99.90
23259;DHT22;11798;51.528;7.240;2023-09-12T09:12:19;20.90;99.90
23259;DHT22;11798;51.528;7.240;2023-09-12T09:14:45;21.00;99.90
23259;DHT22;11798;51.528;7.240;2023-09-12T09:17:10;21.00;99.90
23259;DHT22;11798;51.528;7.240;2023-09-12T09:19:42;21.10;99.90
23259;DHT22;11798;51.528;7.240;2023-09-12T09:22:08;21.10;99.90
23259;DHT22;11798;51.528;7.240;2023-09-12T09:24:34;21.10;99.90
23259;DHT22;11798;51.528;7.240;2023-09-12T09:27:00;21.20;99.90
23259;DHT22;11798;51.528;7.240;2023-09-12T09:29:27;21.20;99.90
23259;DHT22;11798;51.528;7.240;2023-09-12T09:31:58;21.10;99.90
23259;DHT22;11798;51.528;7.240;2023-09-12T09:34:24;21.30;99.90
23259;DHT22;11798;51.528;7.240;2023-09-12T09:36:51;21.40;99.90
23259;DHT22;11798;51.528;7.240;2023-09-12T09:39:24;21.40;99.90
23259;DHT22;11798;51.528;7.240;2023-09-12T09:41:54;21.50;99.90
23259;DHT22;11798;51.528;7.240;2023-09-12T09:44:25;21.70;99.90
23259;DHT22;11798;51.528;7.240;2023-09-12T09:46:59;21.80;99.90
23259;DHT22;11798;51.528;7.240;2023-09-12T09:49:31;21.90;99.90
23259;DHT22;11798;51.528;7.240;2023-09-12T09:51:57;21.90;99.90
23259;DHT22;11798;51.528;7.240;2023-09-12T09:54:25;22.10;99.90
23259;DHT22;11798;51.528;7.240;2023-09-12T09:56:55;22.20;99.90
23259;DHT22;11798;51.528;7.240;2023-09-12T09:59:23;22.40;99.90
23259;DHT22;11798;51.528;7.240;2023-09-12T10:01:50;22.50;99.90
23259;DHT22;11798;51.528;7.240;2023-09-12T10:04:17;22.60;99.90
23259;DHT22;11798;51.528;7.240;2023-09-12T10:06:45;22.70;99.90
23259;DHT22;11798;51.528;7.240;2023-09-12T10:09:12;22.50;99.90
23259;DHT22;11798;51.528;7.240;2023-09-12T10:11:43;22.60;99.90
23259;DHT22;11798;51.528;7.240;2023-09-12T10:14:09;22.70;99.90
23259;DHT22;11798;51.528;7.240;2023-09-12T10:16:44;22.70;99.90
23259;DHT22;11798;51.528;7.240;2023-09-12T10:19:20;22.70;99.90
23259;DHT22;11798;51.528;7.240;2023-09-12T10:24:21;22.60;99.90
23259;DHT22;11798;51.528;7.240;2023-09-12T10:26:50;22.60;99.90
23259;DHT22;11798;51.528;7.240;2023-09-12T10:29:16;22.80;99.90
23259;DHT22;11798;51.528;7.240;2023-09-12T10:31:41;22.70;99.90
23259;DHT22;11798;51.528;7.240;2023-09-12T10:34:08;22.70;99.90
23259;DHT22;11798;51.528;7.240;2023-09-12T10:36:39;22.70;99.90
23259;DHT22;11798;51.528;7.240;2023-09-12T10:39:06;22.70;99.90
23259;DHT22;11798;51.528;7.240;2023-09-12T10:41:33;22.70;99.90
23259;DHT22;11798;51.528;7.240;2023-09-12T10:44:03;22.70;99.90
23259;DHT22;11798;51.528;7.240;2023-09-12T10:46:38;22.70;99.90
23259;DHT22;11798;51.528;7.240;2023-09-12T10:49:09;22.70;99.90
23259;DHT22;11798;51.528;7.240;2023-09-12T10:51:43;22.70;99.90
23259;DHT22;11798;51.528;7.240;2023-09-12T10:54:14;22.80;99.90
23259;DHT22;11798;51.528;7.240;2023-09-12T10:56:40;22.90;99.90
23259;DHT22;11798;51.528;7.240;2023-09-12T11:01:36;23.00;99.90
23259;DHT22;11798;51.528;7.240;2023-09-12T11:06:53;22.80;99.90
23259;DHT22;11798;51.528;7.240;2023-09-12T11:09:22;22.90;99.90
23259;DHT22;11798;51.528;7.240;2023-09-12T11:12:03;22.80;99.90
23259;DHT22;11798;51.528;7.240;2023-09-12T11:14:30;23.00;99.90
23259;DHT22;11798;51.528;7.240;2023-09-12T11:19:46;23.30;99.90
23259;DHT22;11798;51.528;7.240;2023-09-12T11:22:29;23.40;99.90
23259;DHT22;11798;51.528;7.240;2023-09-12T11:24:56;23.50;99.90
23259;DHT22;11798;51.528;7.240;2023-09-12T11:28:01;23.50;99.90
23259;DHT22;11798;51.528;7.240;2023-09-12T11:30:28;23.60;99.90
23259;DHT22;11798;51.528;7.240;2023-09-12T11:32:58;23.50;99.90
23259;DHT22;11798;51.528;7.240;2023-09-12T11:35:27;23.60;99.90
23259;DHT22;11798;51.528;7.240;2023-09-12T11:37:57;23.60;99.90
23259;DHT22;11798;51.528;7.240;2023-09-12T11:40:42;23.70;99.90
23259;DHT22;11798;51.528;7.240;2023-09-12T11:43:17;23.70;99.90
23259;DHT22;11798;51.528;7.240;2023-09-12T11:45:45;23.80;99.90
23259;DHT22;11798;51.528;7.240;2023-09-12T11:48:12;24.00;99.90
23259;DHT22;11798;51.528;7.240;2023-09-12T11:50:37;24.00;99.90
23259;DHT22;11798;51.528;7.240;2023-09-12T11:53:05;24.10;99.90
23259;DHT22;11798;51.528;7.240;2023-09-12T11:55:54;24.10;99.90
23259;DHT22;11798;51.528;7.240;2023-09-12T11:58:19;24.10;99.90
23259;DHT22;11798;51.528;7.240;2023-09-12T12:00:50;24.20;99.90
23259;DHT22;11798;51.528;7.240;2023-09-12T12:03:17;24.20;99.90
23259;DHT22;11798;51.528;7.240;2023-09-12T12:05:43;24.20;99.90
23259;DHT22;11798;51.528;7.240;2023-09-12T12:08:13;24.10;99.90
23259;DHT22;11798;51.528;7.240;2023-09-12T12:10:39;24.20;99.90
23259;DHT22;11798;51.528;7.240;2023-09-12T12:13:11;24.40;99.90
23259;DHT22;11798;51.528;7.240;2023-09-12T12:15:36;24.30;99.90
23259;DHT22;11798;51.528;7.240;2023-09-12T12:18:02;24.40;99.90
23259;DHT22;11798;51.528;7.240;2023-09-12T12:20:28;24.30;99.90
23259;DHT22;11798;51.528;7.240;2023-09-12T12:22:55;24.30;99.90
23259;DHT22;11798;51.528;7.240;2023-09-12T12:25:21;24.20;99.90
23259;DHT22;11798;51.528;7.240;2023-09-12T12:27:47;24.20;99.90
23259;DHT22;11798;51.528;7.240;2023-09-12T12:30:14;24.10;99.90
23259;DHT22;11798;51.528;7.240;2023-09-12T12:32:43;24.10;99.90
23259;DHT22;11798;51.528;7.240;2023-09-12T12:35:18;24.10;99.90
23259;DHT22;11798;51.528;7.240;2023-09-12T12:37:44;24.20;99.90
23259;DHT22;11798;51.528;7.240;2023-09-12T12:40:13;24.20;99.90
23259;DHT22;11798;51.528;7.240;2023-09-12T12:42:39;24.30;99.90
23259;DHT22;11798;51.528;7.240;2023-09-12T12:45:21;24.20;99.90
23259;DHT22;11798;51.528;7.240;2023-09-12T12:47:51;24.30;99.90
23259;DHT22;11798;51.528;7.240;2023-09-12T12:50:17;24.40;99.90
23259;DHT22;11798;51.528;7.240;2023-09-12T12:52:47;24.40;99.90
23259;DHT22;11798;51.528;7.240;2023-09-12T12:55:14;24.40;99.90
23259;DHT22;11798;51.528;7.240;2023-09-12T12:57:41;24.50;99.90
23259;DHT22;11798;51.528;7.240;2023-09-12T13:00:13;24.50;99.90
23259;DHT22;11798;51.528;7.240;2023-09-12T13:02:40;24.40;99.90
23259;DHT22;11798;51.528;7.240;2023-09-12T13:05:19;24.20;99.90
23259;DHT22;11798;51.528;7.240;2023-09-12T13:07:45;24.30;99.90
23259;DHT22;11798;51.528;7.240;2023-09-12T13:10:10;24.20;99.90
23259;DHT22;11798;51.528;7.240;2023-09-12T13:12:36;24.20;99.90
23259;DHT22;11798;51.528;7.240;2023-09-12T13:15:03;24.10;99.90
23259;DHT22;11798;51.528;7.240;2023-09-12T13:17:29;24.10;99.90
23259;DHT22;11798;51.528;7.240;2023-09-12T13:19:54;24.20;99.90
23259;DHT22;11798;51.528;7.240;2023-09-12T13:22:20;24.10;99.90
23259;DHT22;11798;51.528;7.240;2023-09-12T13:24:45;24.30;99.90
23259;DHT22;11798;51.528;7.240;2023-09-12T13:27:12;24.30;99.90
23259;DHT22;11798;51.528;7.240;2023-09-12T13:29:37;24.40;99.90
23259;DHT22;11798;51.528;7.240;2023-09-12T13:32:03;24.40;99.90
23259;DHT22;11798;51.528;7.240;2023-09-12T13:34:29;24.30;99.90
23259;DHT22;11798;51.528;7.240;2023-09-12T13:36:54;24.20;99.90
23259;DHT22;11798;51.528;7.240;2023-09-12T13:39:20;24.20;99.90
23259;DHT22;11798;51.528;7.240;2023-09-12T13:41:46;24.20;99.90
23259;DHT22;11798;51.528;7.240;2023-09-12T13:44:11;24.20;99.90
23259;DHT22;11798;51.528;7.240;2023-09-12T13:46:37;24.20;99.90
23259;DHT22;11798;51.528;7.240;2023-09-12T13:49:02;24.30;99.90
23259;DHT22;11798;51.528;7.240;2023-09-12T13:51:29;24.20;99.90
23259;DHT22;11798;51.528;7.240;2023-09-12T13:53:55;24.20;99.90
23259;DHT22;11798;51.528;7.240;2023-09-12T13:56:20;24.20;99.90
23259;DHT22;11798;51.528;7.240;2023-09-12T13:58:46;24.10;99.90
23259;DHT22;11798;51.528;7.240;2023-09-12T14:01:11;24.10;99.90
23259;DHT22;11798;51.528;7.240;2023-09-12T14:03:37;24.10;99.90
23259;DHT22;11798;51.528;7.240;2023-09-12T14:06:03;24.10;99.90
23259;DHT22;11798;51.528;7.240;2023-09-12T14:08:29;24.00;99.90
23259;DHT22;11798;51.528;7.240;2023-09-12T14:10:54;24.00;99.90
23259;DHT22;11798;51.528;7.240;2023-09-12T14:13:20;24.10;99.90
23259;DHT22;11798;51.528;7.240;2023-09-12T14:15:46;24.10;99.90
23259;DHT22;11798;51.528;7.240;2023-09-12T14:18:12;24.20;99.90
23259;DHT22;11798;51.528;7.240;2023-09-12T14:20:37;24.20;99.90
23259;DHT22;11798;51.528;7.240;2023-09-12T14:23:03;24.20;99.90
23259;DHT22;11798;51.528;7.240;2023-09-12T14:25:29;24.30;99.90
23259;DHT22;11798;51.528;7.240;2023-09-12T14:27:54;24.20;99.90
23259;DHT22;11798;51.528;7.240;2023-09-12T14:30:20;24.20;99.90
23259;DHT22;11798;51.528;7.240;2023-09-12T14:32:47;24.20;99.90
23259;DHT22;11798;51.528;7.240;2023-09-12T14:35:13;24.20;99.90
23259;DHT22;11798;51.528;7.240;2023-09-12T14:37:39;24.10;99.90
23259;DHT22;11798;51.528;7.240;2023-09-12T14:40:05;24.10;99.90
23259;DHT22;11798;51.528;7.240;2023-09-12T14:42:31;24.20;99.90
23259;DHT22;11798;51.528;7.240;2023-09-12T14:44:57;24.20;99.90
23259;DHT22;11798;51.528;7.240;2023-09-12T14:47:23;24.20;99.90
23259;DHT22;11798;51.528;7.240;2023-09-12T14:49:49;24.20;99.90
23259;DHT22;11798;51.528;7.240;2023-09-12T14:52:15;24.20;99.90
23259;DHT22;11798;51.528;7.240;2023-09-12T14:54:40;24.20;99.90
23259;DHT22;11798;51.528;7.240;2023-09-12T14:57:06;24.20;99.90
23259;DHT22;11798;51.528;7.240;2023-09-12T14:59:31;24.20;99.90
23259;DHT22;11798;51.528;7.240;2023-09-12T15:01:57;24.20;99.90
23259;DHT22;11798;51.528;7.240;2023-09-12T15:04:23;24.20;99.90
23259;DHT22;11798;51.528;7.240;2023-09-12T15:06:49;24.20;99.90
23259;DHT22;11798;51.528;7.240;2023-09-12T15:09:15;24.10;99.90
23259;DHT22;11798;51.528;7.240;2023-09-12T15:11:41;24.10;99.90
23259;DHT22;11798;51.528;7.240;2023-09-12T15:14:06;24.20;99.90
23259;DHT22;11798;51.528;7.240;2023-09-12T15:16:32;24.30;99.90
23259;DHT22;11798;51.528;7.240;2023-09-12T15:19:00;24.40;99.90
23259;DHT22;11798;51.528;7.240;2023-09-12T15:21:27;24.50;99.90
23259;DHT22;11798;51.528;7.240;2023-09-12T15:23:53;24.50;99.90
23259;DHT22;11798;51.528;7.240;2023-09-12T15:26:19;24.60;99.90
23259;DHT22;11798;51.528;7.240;2023-09-12T15:28:44;24.50;99.90
23259;DHT22;11798;51.528;7.240;2023-09-12T15:31:10;24.60;99.90
23259;DHT22;11798;51.528;7.240;2023-09-12T15:33:37;24.80;99.90
23259;DHT22;11798;51.528;7.240;2023-09-12T15:36:02;24.90;99.90
23259;DHT22;11798;51.528;7.240;2023-09-12T15:38:28;25.00;99.90
23259;DHT22;11798;51.528;7.240;2023-09-12T15:40:54;25.20;99.90